Bentonville, OH (45105)

11:07 AM EST on February 10, 2016 (GMT -0500)
Manchester Local Schools | | Change Station
CLOSE
Current Station
Personal Weather Station
Location: Manchester, OH
Elevation: 541 ft
Nearby Weather Stations
Active Advisory: Winter Weather Advisory

Elev 541 ft 38.69 °N, 83.59 °W | Updated 20 seconds ago

Overcast
Overcast
19.4 °F
Feels Like 13 °F
N
4.5
Wind Variable Wind from NNE
Gusts 9.8 mph

Today
High -- | Low -- °F
--% Chance of Precip.
Yesterday
High -- | Low -- °F
Precip. -- in
Pressure 30.01 in
Visibility 7.0 miles
Clouds Mostly Cloudy 1700 ft
Mostly Cloudy 2200 ft
Overcast 3100 ft
Windchill 13 °F
Dew Point 7 °F
Humidity 57%
Rainfall 0.00 in
Snow Depth Not available.
7:31 AM 6:06 PM
Waxing Crescent, 6% visible
METAR KI69 101556Z AUTO 27010G17KT 7SM -SN BKN017 BKN022 OVC031 M08/M13 A3001 RMK AO2 T10821127
Pressure 30.01 in
Visibility 7.0 miles
Clouds Mostly Cloudy 1700 ft
Mostly Cloudy 2200 ft
Overcast 3100 ft
Windchill 13 °F
Dew Point 7 °F
Humidity 57%
Rainfall 0.00 in
Snow Depth Not available.
7:31 AM 6:06 PM
Waxing Crescent, 6% visible
METAR KI69 101556Z AUTO 27010G17KT 7SM -SN BKN017 BKN022 OVC031 M08/M13 A3001 RMK AO2 T10821127

10-Day Weather Forecast

Almanac

Astronomy

Feb. 10, 2016 Rise Set
Actual Time
Civil Twilight
Nautical Twilight
Astronomical Twilight
Moon
Length of Visible Light
Length of Day
Tomorrow will be .
, % of the Moon is Illuminated

Today's Extremes

State Highs State Lows

Community

WunderPhotos

Upload Photos

1,891,862 photos uploaded!

WunderBlog® & News

Nearby

Air Quality

  Air Quality AQ Index Pollutant
Not available.

Snow Depth

Station Depth Elevation

Earthquake Activity

City Distance Mag. Time & Date
Minimum magnitude displayed is 2.5.

Coastal Water Temperatures

Place Temperature

Stations

Nearby Weather Stations

Station Location Temp. Windchill Dew Point Humidity Wind Precip. Elev Updated Type
                   

Watches & Warnings

Winter Weather Advisory
Issued: 9:45 AM EST Feb. 10, 2016 – National Weather Service

... Winter Weather Advisory now in effect until 1 PM EST this
afternoon...

* timing... snow showers expected through early afternoon... then
scattered snow showers and a few flurries will occur for the
remainder of the afternoon.

* Accumulations... snow accumulations of up to 1 inch expected.

* Impacts... travel difficulties are expected due to reduced
visibilities and snow accumulations.

Precautionary/preparedness actions...

Remember... a Winter Weather Advisory for snow means that periods
of snow will cause primarily travel difficulties. Be prepared for
snow covered roads and limited visibilities... and use caution
while driving. Stay tuned to NOAA Weather Radio or your favorite
source of information for the latest updates. Additional details
can also be found at www.Weather.Gov/iln as well as on our
facebook and twitter pages.